createdAt,value
2019-02-14T00:00:25.460Z,10.20
2019-02-14T00:01:25.318Z,11.40
2019-02-14T00:02:25.608Z,12.60
2019-02-14T00:03:25.945Z,13.20
2019-02-14T00:04:26.447Z,14.40
2019-02-14T00:05:27.334Z,13.80
2019-02-14T00:06:26.934Z,14.50
2019-02-14T00:07:26.833Z,15.10
2019-02-14T00:08:27.211Z,14.70
2019-02-14T00:09:27.504Z,13.80
2019-02-14T00:10:27.919Z,13.30
2019-02-14T00:11:28.190Z,12.50
2019-02-14T00:12:28.722Z,13.20
2019-02-14T00:13:28.922Z,11.40
2019-02-14T00:14:29.040Z,12.40
2019-02-14T00:15:29.545Z,10.70
2019-02-14T00:16:29.504Z,10.90
2019-02-14T00:17:30.492Z,10.70
2019-02-14T00:18:30.341Z,11.30
2019-02-14T00:19:30.663Z,10.70
2019-02-14T00:20:31.150Z,11.70
2019-02-14T00:21:31.552Z,13.00
2019-02-14T00:22:32.376Z,15.10
2019-02-14T00:23:32.149Z,16.60
2019-02-14T00:24:32.762Z,14.60
2019-02-14T00:25:32.749Z,14.40
2019-02-14T00:26:33.719Z,16.10
2019-02-14T00:27:33.938Z,17.90
2019-02-14T00:28:33.854Z,17.60
2019-02-14T00:29:34.331Z,17.10
2019-02-14T00:30:35.283Z,17.20
2019-02-14T00:31:35.911Z,16.20
2019-02-14T00:32:36.199Z,17.10
2019-02-14T00:33:36.324Z,17.60
2019-02-14T00:34:36.642Z,17.80
2019-02-14T00:35:36.849Z,17.80
2019-02-14T00:36:37.165Z,18.10
2019-02-14T00:37:37.074Z,17.40
2019-02-14T00:38:37.383Z,19.10
2019-02-14T00:39:37.669Z,18.00
2019-02-14T00:40:38.010Z,17.40
2019-02-14T00:41:38.097Z,17.00
2019-02-14T00:42:38.509Z,17.50
2019-02-14T00:43:39.361Z,17.90
2019-02-14T00:44:39.145Z,16.80
2019-02-14T00:45:39.524Z,17.80
2019-02-14T00:46:39.990Z,18.10
2019-02-14T00:47:40.626Z,19.50
2019-02-14T00:48:40.461Z,17.10
2019-02-14T00:49:40.613Z,16.20
2019-02-14T00:50:40.946Z,15.80
2019-02-14T00:51:41.156Z,16.50
2019-02-14T00:52:41.374Z,14.80
2019-02-14T00:53:41.213Z,16.00
2019-02-14T00:54:42.200Z,16.40
2019-02-14T00:55:42.486Z,15.50
2019-02-14T00:56:42.358Z,15.30
2019-02-14T00:57:42.864Z,16.30
2019-02-14T00:58:43.231Z,15.10
2019-02-14T00:59:43.613Z,17.00
2019-02-14T01:00:43.922Z,16.40
2019-02-14T01:01:44.243Z,14.20
2019-02-14T01:02:44.555Z,12.80
2019-02-14T01:03:44.972Z,14.10
2019-02-14T01:04:45.443Z,14.50
2019-02-14T01:06:45.509Z,15.70
2019-02-14T01:07:45.795Z,15.20
2019-02-14T01:08:46.379Z,15.30
2019-02-14T01:09:46.241Z,17.50
2019-02-14T01:10:47.007Z,16.80
2019-02-14T01:11:46.870Z,17.30
2019-02-14T01:12:47.400Z,16.40
2019-02-14T01:13:47.394Z,16.80
2019-02-14T01:14:47.708Z,15.60
2019-02-14T01:15:48.463Z,14.90
2019-02-14T01:16:48.473Z,15.00
2019-02-14T01:17:49.111Z,14.80
2019-02-14T01:18:49.019Z,16.50
2019-02-14T01:19:49.411Z,15.80
2019-02-14T01:20:49.402Z,16.30
2019-02-14T01:21:50.561Z,16.00
2019-02-14T01:22:50.879Z,17.50
2019-02-14T01:23:50.880Z,15.70
2019-02-14T01:24:51.016Z,15.70
2019-02-14T01:25:51.089Z,16.40
2019-02-14T01:26:51.406Z,16.00
2019-02-14T01:27:51.424Z,17.00
2019-02-14T01:28:51.416Z,16.80
2019-02-14T01:29:51.838Z,16.80
2019-02-14T01:30:52.360Z,15.80
2019-02-14T01:31:52.369Z,16.20
2019-02-14T01:32:52.073Z,16.30
2019-02-14T01:33:52.892Z,17.10
2019-02-14T01:34:52.656Z,16.60
2019-02-14T01:35:53.016Z,16.80
2019-02-14T01:36:53.419Z,18.00
2019-02-14T01:37:53.283Z,17.70
2019-02-14T01:38:54.002Z,16.90
2019-02-14T01:39:53.840Z,17.70
2019-02-14T01:40:54.370Z,19.40
2019-02-14T01:41:54.143Z,18.70
2019-02-14T01:42:54.449Z,18.40
2019-02-14T01:43:54.745Z,19.40
2019-02-14T01:44:55.060Z,19.90
2019-02-14T01:45:55.631Z,20.10
2019-02-14T01:46:55.486Z,18.70
2019-02-14T01:47:56.251Z,18.10
2019-02-14T01:48:56.197Z,17.20
2019-02-14T01:49:56.675Z,17.70
2019-02-14T01:50:57.179Z,19.00
2019-02-14T01:52:57.529Z,17.70
2019-02-14T01:53:57.373Z,18.70
2019-02-14T01:54:57.847Z,18.40
2019-02-14T01:55:58.206Z,17.60
2019-02-14T01:57:58.636Z,17.30
2019-02-14T01:58:59.303Z,17.40
2019-02-14T01:59:59.614Z,17.80
2019-02-14T02:00:59.465Z,17.50
2019-02-14T02:01:59.809Z,17.20
2019-02-14T02:03:00.616Z,16.60
2019-02-14T02:04:00.672Z,16.90
2019-02-14T02:05:00.614Z,17.10
2019-02-14T02:07:01.153Z,16.30
2019-02-14T02:08:01.519Z,16.40
2019-02-14T02:09:01.722Z,17.60
2019-02-14T02:10:02.754Z,17.10
2019-02-14T02:11:02.659Z,17.50
2019-02-14T02:12:02.432Z,18.20
2019-02-14T02:13:03.395Z,18.50
2019-02-14T02:14:03.177Z,17.40
2019-02-14T02:15:03.554Z,19.00
2019-02-14T02:16:04.423Z,18.90
2019-02-14T02:17:04.428Z,18.80
2019-02-14T02:18:05.783Z,19.30
2019-02-14T02:19:06.092Z,19.60
2019-02-14T02:20:06.288Z,19.40
2019-02-14T02:21:06.505Z,18.10
2019-02-14T02:22:06.095Z,18.40
2019-02-14T02:23:06.610Z,19.10
2019-02-14T02:24:06.737Z,20.40
2019-02-14T02:25:06.642Z,18.50
2019-02-14T02:26:06.717Z,19.00
2019-02-14T02:27:07.110Z,20.20
2019-02-14T02:28:07.625Z,19.30
2019-02-14T02:29:07.384Z,20.10
2019-02-14T02:30:07.829Z,19.60
2019-02-14T02:31:08.321Z,22.10
2019-02-14T02:32:07.979Z,20.50
2019-02-14T02:33:07.973Z,22.00
2019-02-14T02:34:08.284Z,21.70
2019-02-14T02:35:08.636Z,22.00
2019-02-14T02:36:09.013Z,22.30
2019-02-14T02:37:09.377Z,22.60
2019-02-14T02:39:09.757Z,22.10
2019-02-14T02:40:10.159Z,22.40
2019-02-14T02:41:10.850Z,21.10
2019-02-14T02:42:10.680Z,20.70
2019-02-14T02:43:11.035Z,19.90
2019-02-14T02:44:11.679Z,20.50
2019-02-14T02:45:11.481Z,19.90
2019-02-14T02:46:12.004Z,21.00
2019-02-14T02:47:12.404Z,19.50
2019-02-14T02:48:12.802Z,21.40
2019-02-14T02:49:13.455Z,20.20
2019-02-14T02:50:14.059Z,20.40
2019-02-14T02:51:13.328Z,20.00
2019-02-14T02:52:14.502Z,20.30
2019-02-14T02:53:13.848Z,19.80
2019-02-14T02:54:14.154Z,17.70
2019-02-14T02:55:15.339Z,18.60
2019-02-14T02:56:14.719Z,16.50
2019-02-14T02:57:15.658Z,16.30
2019-02-14T02:58:15.859Z,16.50
2019-02-14T02:59:15.727Z,16.30
2019-02-14T03:00:16.491Z,16.70
2019-02-14T03:01:16.489Z,16.70
2019-02-14T03:02:16.721Z,16.60
2019-02-14T03:03:16.933Z,16.40
2019-02-14T03:04:16.786Z,16.40
2019-02-14T03:05:17.962Z,17.20
2019-02-14T03:06:17.356Z,15.60
2019-02-14T03:07:18.063Z,17.20
2019-02-14T03:08:18.024Z,16.10
2019-02-14T03:09:18.491Z,16.30
2019-02-14T03:10:18.808Z,16.10
2019-02-14T03:11:19.433Z,15.10
2019-02-14T03:12:19.305Z,16.80
2019-02-14T03:13:19.617Z,16.90
2019-02-14T03:14:20.789Z,16.60
2019-02-14T03:15:20.893Z,16.10
2019-02-14T03:16:21.124Z,16.80
2019-02-14T03:17:21.381Z,17.40
2019-02-14T03:18:21.523Z,17.00
2019-02-14T03:19:21.434Z,16.80
2019-02-14T03:20:21.745Z,17.10
2019-02-14T03:21:22.366Z,18.00
2019-02-14T03:22:22.479Z,17.10
2019-02-14T03:23:22.487Z,17.20
2019-02-14T03:24:22.383Z,17.30
2019-02-14T03:25:22.849Z,16.50
2019-02-14T03:26:22.842Z,16.80
2019-02-14T03:27:23.218Z,16.30
2019-02-14T03:28:23.194Z,17.30
2019-02-14T03:29:23.502Z,18.20
2019-02-14T03:30:23.818Z,20.40
2019-02-14T03:31:24.236Z,20.20
2019-02-14T03:32:24.542Z,19.00
2019-02-14T03:33:24.873Z,18.20
2019-02-14T03:34:25.510Z,17.90
2019-02-14T03:35:25.364Z,16.90
2019-02-14T03:36:26.057Z,17.50
2019-02-14T03:37:25.912Z,17.70
2019-02-14T03:38:26.482Z,18.10
2019-02-14T03:39:26.336Z,15.80
2019-02-14T03:40:26.891Z,16.40
2019-02-14T03:41:26.739Z,16.20
2019-02-14T03:42:27.036Z,16.30
2019-02-14T03:43:27.524Z,16.70
2019-02-14T03:44:27.375Z,16.90
2019-02-14T03:45:27.678Z,18.40
2019-02-14T03:46:28.571Z,17.40
2019-02-14T03:47:28.462Z,18.20
2019-02-14T03:48:28.895Z,18.10
2019-02-14T03:49:29.168Z,18.20
2019-02-14T03:50:29.472Z,16.90
2019-02-14T03:51:29.931Z,17.10
2019-02-14T03:53:30.311Z,16.80
2019-02-14T03:54:30.648Z,17.60
2019-02-14T03:55:31.280Z,16.80
2019-02-14T03:57:31.157Z,17.30
2019-02-14T03:58:31.469Z,18.20
2019-02-14T03:59:32.238Z,19.70
2019-02-14T04:00:32.549Z,16.70
2019-02-14T04:01:32.419Z,17.10
2019-02-14T04:02:32.972Z,17.80
2019-02-14T04:03:32.991Z,18.10
2019-02-14T04:04:33.073Z,17.70
2019-02-14T04:05:32.953Z,18.70
2019-02-14T04:06:33.450Z,18.10
2019-02-14T04:07:33.713Z,18.20
2019-02-14T04:08:34.076Z,18.40
2019-02-14T04:09:34.656Z,18.40
2019-02-14T04:10:34.770Z,17.90
2019-02-14T04:11:34.692Z,17.60
2019-02-14T04:12:35.800Z,17.20
2019-02-14T04:13:35.926Z,17.40
2019-02-14T04:14:35.910Z,17.20
2019-02-14T04:15:35.919Z,18.30
2019-02-14T04:16:36.434Z,16.10
2019-02-14T04:17:36.862Z,16.70
2019-02-14T04:18:37.082Z,17.00
2019-02-14T04:19:36.977Z,16.60
2019-02-14T04:20:37.489Z,16.40
2019-02-14T04:21:37.401Z,16.30
2019-02-14T04:22:37.786Z,17.90
2019-02-14T04:23:38.098Z,17.10
2019-02-14T04:24:38.396Z,16.20
2019-02-14T04:25:38.236Z,15.40
2019-02-14T04:26:38.653Z,16.70
2019-02-14T04:27:39.489Z,14.80
2019-02-14T04:28:39.348Z,14.90
2019-02-14T04:29:39.685Z,15.30
2019-02-14T04:30:40.118Z,15.50
2019-02-14T04:31:40.492Z,15.70
2019-02-14T04:32:40.846Z,16.70
2019-02-14T04:33:41.472Z,16.60
2019-02-14T04:34:41.497Z,17.50
2019-02-14T04:35:41.282Z,16.60
2019-02-14T04:36:42.000Z,16.30
2019-02-14T04:37:41.855Z,15.80
2019-02-14T04:38:42.186Z,15.20
2019-02-14T04:39:42.597Z,16.80
2019-02-14T04:40:43.355Z,15.90
2019-02-14T04:41:43.218Z,17.00
2019-02-14T04:42:43.484Z,18.70
2019-02-14T04:43:43.965Z,19.10
2019-02-14T04:45:44.426Z,20.30
2019-02-14T04:46:44.791Z,20.00
2019-02-14T04:47:45.108Z,17.80
2019-02-14T04:48:45.660Z,18.20
2019-02-14T04:49:45.535Z,18.50
2019-02-14T04:50:46.294Z,19.30
2019-02-14T04:51:46.055Z,21.20
2019-02-14T04:52:46.363Z,20.20
2019-02-14T04:53:46.668Z,22.10
2019-02-14T04:54:47.560Z,23.40
2019-02-14T04:55:47.581Z,22.40
2019-02-14T04:56:47.871Z,23.10
2019-02-14T04:57:47.745Z,23.50
2019-02-14T04:58:48.149Z,24.20
2019-02-14T04:59:48.468Z,24.20
2019-02-14T05:00:48.726Z,24.60
2019-02-14T05:01:49.539Z,25.60
2019-02-14T05:02:49.401Z,25.30
2019-02-14T05:03:49.967Z,25.70
2019-02-14T05:04:50.900Z,24.40
2019-02-14T05:05:51.197Z,25.40
2019-02-14T05:06:51.417Z,24.70
2019-02-14T05:07:51.832Z,24.90
2019-02-14T05:08:51.586Z,23.50
2019-02-14T05:09:52.063Z,25.60
2019-02-14T05:10:51.953Z,24.90
2019-02-14T05:11:52.685Z,25.30
2019-02-14T05:12:52.505Z,24.60
2019-02-14T05:13:52.835Z,24.20
2019-02-14T05:14:52.936Z,24.50
2019-02-14T05:15:53.222Z,23.30
2019-02-14T05:16:53.336Z,23.20
2019-02-14T05:17:53.220Z,23.50
2019-02-14T05:18:53.599Z,24.30
2019-02-14T05:19:54.068Z,21.30
2019-02-14T05:20:54.428Z,23.00
2019-02-14T05:21:54.750Z,25.10
2019-02-14T05:22:55.036Z,24.40
2019-02-14T05:23:55.710Z,22.30
2019-02-14T05:24:55.689Z,22.90
2019-02-14T05:25:56.667Z,22.10
2019-02-14T05:26:56.626Z,22.80
2019-02-14T05:27:57.288Z,23.50
2019-02-14T05:28:57.199Z,24.10
2019-02-14T05:29:57.720Z,23.80
2019-02-14T05:30:57.560Z,22.80
2019-02-14T05:31:57.876Z,24.30
2019-02-14T05:32:58.504Z,22.70
2019-02-14T05:33:58.457Z,23.40
2019-02-14T05:34:58.776Z,22.90
2019-02-14T05:35:59.130Z,22.30
2019-02-14T05:36:59.804Z,21.40
2019-02-14T05:38:00.011Z,21.60
2019-02-14T05:39:00.021Z,22.10
2019-02-14T05:40:00.444Z,23.00
2019-02-14T05:41:00.801Z,22.40
2019-02-14T05:42:01.891Z,21.60
2019-02-14T05:43:01.787Z,23.10
2019-02-14T05:44:02.057Z,21.70
2019-02-14T05:45:02.211Z,22.50
2019-02-14T05:46:02.830Z,22.80
2019-02-14T05:47:02.611Z,24.30
2019-02-14T05:48:02.858Z,23.80
2019-02-14T05:49:02.634Z,24.90
2019-02-14T05:50:03.655Z,23.60
2019-02-14T05:51:03.569Z,23.00
2019-02-14T05:52:04.071Z,23.20
2019-02-14T05:53:04.040Z,22.50
2019-02-14T05:54:04.115Z,21.80
2019-02-14T05:55:04.121Z,18.90
2019-02-14T05:56:09.444Z,18.80
2019-02-14T05:57:05.120Z,16.30
2019-02-14T05:58:04.613Z,15.40
2019-02-14T05:59:11.653Z,16.00
2019-02-14T06:00:06.601Z,16.70
2019-02-14T06:01:06.099Z,15.80
2019-02-14T06:02:06.624Z,15.40
2019-02-14T06:03:06.626Z,16.80
2019-02-14T06:04:06.438Z,18.00
2019-02-14T06:05:07.055Z,20.90
2019-02-14T06:06:07.105Z,19.40
2019-02-14T06:07:07.383Z,18.90
2019-02-14T06:08:07.375Z,18.10
2019-02-14T06:09:07.189Z,15.30
2019-02-14T06:10:07.579Z,16.70
2019-02-14T06:11:07.979Z,17.00
2019-02-14T06:12:08.141Z,17.10
2019-02-14T06:13:08.286Z,17.00
2019-02-14T06:14:08.438Z,19.00
2019-02-14T06:15:08.334Z,20.90
2019-02-14T06:16:08.636Z,20.70
2019-02-14T06:17:09.512Z,19.90
2019-02-14T06:18:09.337Z,20.30
2019-02-14T06:19:09.660Z,19.10
2019-02-14T06:20:20.093Z,19.90
2019-02-14T06:21:10.395Z,20.30
2019-02-14T06:22:10.720Z,22.10
2019-02-14T06:23:11.238Z,22.30
2019-02-14T06:24:11.658Z,23.70
2019-02-14T06:25:12.195Z,24.90
2019-02-14T06:26:12.153Z,26.20
2019-02-14T06:27:12.425Z,28.10
2019-02-14T06:28:12.290Z,28.60
2019-02-14T06:29:12.711Z,27.20
2019-02-14T06:30:13.158Z,29.50
2019-02-14T06:31:13.596Z,29.10
2019-02-14T06:33:14.075Z,28.80
2019-02-14T06:35:15.255Z,28.10
2019-02-14T06:36:14.602Z,28.50
2019-02-14T06:37:15.374Z,28.80
2019-02-14T06:38:15.831Z,30.90
2019-02-14T06:39:15.697Z,32.50
2019-02-14T06:40:16.405Z,32.30
2019-02-14T06:41:16.292Z,31.30
2019-02-14T06:42:17.131Z,30.10
2019-02-14T06:43:17.341Z,29.70
2019-02-14T06:44:17.296Z,28.30
2019-02-14T06:45:18.072Z,28.10
2019-02-14T06:46:18.285Z,28.00
2019-02-14T06:47:18.805Z,27.40
2019-02-14T06:48:18.234Z,29.40
2019-02-14T06:49:18.633Z,27.10
2019-02-14T06:50:19.315Z,28.60
2019-02-14T06:51:19.195Z,25.30
2019-02-14T06:52:19.514Z,25.10
2019-02-14T06:53:20.681Z,26.10
2019-02-14T06:54:20.914Z,26.30
2019-02-14T06:55:21.207Z,25.40
2019-02-14T06:56:21.314Z,24.50
2019-02-14T06:57:21.326Z,25.10
2019-02-14T06:58:21.653Z,25.00
2019-02-14T06:59:21.907Z,25.10
2019-02-14T07:00:21.978Z,23.90
2019-02-14T07:01:22.290Z,24.20
2019-02-14T07:02:22.484Z,24.60
2019-02-14T07:03:22.180Z,25.10
2019-02-14T07:04:22.600Z,25.60
2019-02-14T07:05:23.273Z,24.60
2019-02-14T07:06:23.043Z,26.10
2019-02-14T07:07:23.399Z,24.90
2019-02-14T07:08:23.734Z,25.30
2019-02-14T07:09:24.687Z,24.20
2019-02-14T07:10:25.010Z,24.40
2019-02-14T07:11:25.005Z,23.70
2019-02-14T07:12:24.981Z,23.00
2019-02-14T07:13:25.392Z,24.10
2019-02-14T07:14:25.806Z,23.70
2019-02-14T07:15:26.226Z,23.80
2019-02-14T07:16:26.773Z,25.30
2019-02-14T07:17:26.562Z,25.50
2019-02-14T07:18:28.018Z,26.50
2019-02-14T07:19:27.400Z,25.60
2019-02-14T07:20:27.868Z,26.80
2019-02-14T07:21:28.202Z,25.30
2019-02-14T07:22:28.542Z,23.80
2019-02-14T07:23:28.869Z,24.10
2019-02-14T07:24:29.251Z,23.10
2019-02-14T07:25:29.639Z,23.00
2019-02-14T07:26:30.111Z,24.10
2019-02-14T07:27:30.415Z,21.80
2019-02-14T07:28:31.555Z,22.80
2019-02-14T07:29:30.932Z,22.90
2019-02-14T07:30:31.615Z,23.20
2019-02-14T07:31:32.191Z,23.90
2019-02-14T07:32:32.715Z,22.10
2019-02-14T07:33:32.611Z,23.40
2019-02-14T07:34:32.623Z,23.00
2019-02-14T07:35:32.445Z,22.60
2019-02-14T07:36:33.357Z,22.40
2019-02-14T07:37:33.458Z,21.30
2019-02-14T07:38:33.340Z,21.90
2019-02-14T07:39:33.990Z,22.20
2019-02-14T07:40:34.202Z,21.20
2019-02-14T07:41:34.401Z,21.90
2019-02-14T07:42:34.291Z,20.70
2019-02-14T07:43:34.843Z,19.70
2019-02-14T07:44:34.944Z,20.20
2019-02-14T07:45:35.359Z,20.80
2019-02-14T07:46:35.982Z,21.00
2019-02-14T07:47:36.190Z,19.90
2019-02-14T07:48:36.421Z,20.20
2019-02-14T07:49:36.502Z,20.50
2019-02-14T07:50:36.611Z,20.30
2019-02-14T07:51:36.830Z,21.70
2019-02-14T07:52:36.853Z,19.80
2019-02-14T07:53:36.860Z,20.70
2019-02-14T07:54:36.859Z,20.50
2019-02-14T07:55:36.858Z,18.30
2019-02-14T07:56:37.450Z,17.90
2019-02-14T07:57:37.542Z,19.20
2019-02-14T07:58:37.813Z,19.20
2019-02-14T07:59:37.505Z,18.70
2019-02-14T08:00:37.593Z,18.40
2019-02-14T08:01:37.782Z,18.30
2019-02-14T08:02:37.824Z,18.00
2019-02-14T08:03:37.913Z,19.20
2019-02-14T08:04:37.899Z,19.00
2019-02-14T08:05:38.230Z,18.50
2019-02-14T08:06:38.681Z,18.40
2019-02-14T08:07:38.958Z,18.10
2019-02-14T08:08:39.467Z,18.80
2019-02-14T08:09:39.313Z,18.10
2019-02-14T08:10:39.631Z,17.30
2019-02-14T08:11:39.979Z,17.90
2019-02-14T08:12:40.368Z,17.50
2019-02-14T08:13:41.075Z,17.90
2019-02-14T08:14:40.911Z,17.70
2019-02-14T08:15:41.251Z,17.20
2019-02-14T08:16:41.665Z,18.40
2019-02-14T08:17:42.640Z,17.60
2019-02-14T08:18:42.948Z,17.00
2019-02-14T08:19:42.830Z,18.30
2019-02-14T08:20:43.182Z,17.80
2019-02-14T08:21:43.540Z,17.80
2019-02-14T08:22:44.307Z,17.40
2019-02-14T08:23:44.167Z,16.60
2019-02-14T08:24:45.146Z,16.80
2019-02-14T08:25:45.002Z,15.60
2019-02-14T08:26:45.658Z,15.90
2019-02-14T08:27:45.527Z,16.40
2019-02-14T08:28:46.267Z,16.10
2019-02-14T08:29:46.205Z,15.50
2019-02-14T08:30:46.916Z,16.00
2019-02-14T08:31:46.816Z,14.70
2019-02-14T08:32:47.266Z,13.60
2019-02-14T08:33:47.605Z,14.80
2019-02-14T08:34:47.940Z,15.90
2019-02-14T08:35:48.518Z,15.50
2019-02-14T08:36:48.498Z,15.10
2019-02-14T08:37:49.217Z,15.90
2019-02-14T08:38:49.742Z,15.20
2019-02-14T08:39:49.601Z,16.10
2019-02-14T08:40:50.780Z,14.70
2019-02-14T08:41:51.071Z,14.80
2019-02-14T08:42:51.417Z,16.80
2019-02-14T08:43:51.689Z,16.50
2019-02-14T08:44:51.720Z,16.50
2019-02-14T08:45:51.944Z,17.60
2019-02-14T08:46:51.790Z,16.80
2019-02-14T08:47:52.254Z,16.40
2019-02-14T08:48:53.024Z,16.30
2019-02-14T08:49:52.940Z,15.60
2019-02-14T08:50:52.768Z,15.10
2019-02-14T08:51:53.508Z,15.00
2019-02-14T08:52:53.364Z,14.60
2019-02-14T08:53:53.701Z,15.70
2019-02-14T08:54:54.342Z,14.80
2019-02-14T08:55:54.211Z,13.80
2019-02-14T08:56:54.633Z,15.30
2019-02-14T08:57:55.097Z,14.50
2019-02-14T08:58:55.503Z,14.50
2019-02-14T08:59:56.731Z,13.40
2019-02-14T09:00:56.749Z,14.10
2019-02-14T09:01:57.526Z,12.70
2019-02-14T09:02:57.061Z,13.10
2019-02-14T09:03:56.920Z,13.00
2019-02-14T09:04:57.337Z,13.20
2019-02-14T09:05:57.630Z,13.60
2019-02-14T09:06:58.323Z,13.00
2019-02-14T09:07:58.189Z,13.90
2019-02-14T09:08:58.501Z,14.00
2019-02-14T09:09:59.464Z,13.10
2019-02-14T09:10:59.327Z,12.80
2019-02-14T09:12:00.191Z,12.70
2019-02-14T09:13:00.621Z,13.30
2019-02-14T09:14:00.613Z,12.50
2019-02-14T09:15:01.543Z,12.50
2019-02-14T09:16:02.371Z,13.40
2019-02-14T09:17:02.705Z,13.70
2019-02-14T09:18:02.790Z,12.60
2019-02-14T09:19:03.101Z,12.10
2019-02-14T09:20:03.379Z,13.30
2019-02-14T09:21:03.012Z,12.40
2019-02-14T09:22:03.812Z,13.40
2019-02-14T09:23:03.941Z,12.60
2019-02-14T09:24:04.467Z,13.40
2019-02-14T09:25:03.914Z,13.20
2019-02-14T09:26:04.219Z,12.50
2019-02-14T09:27:04.563Z,12.30
2019-02-14T09:28:05.737Z,12.70
2019-02-14T09:29:06.265Z,13.00
2019-02-14T09:30:06.656Z,12.90
2019-02-14T09:31:06.783Z,14.00
2019-02-14T09:32:06.900Z,13.10
2019-02-14T09:33:07.142Z,13.50
2019-02-14T09:34:07.426Z,13.00
2019-02-14T09:35:07.476Z,13.00
2019-02-14T09:36:07.545Z,14.40
2019-02-14T09:37:07.518Z,14.60
2019-02-14T09:38:08.152Z,14.00
2019-02-14T09:39:07.800Z,13.10
2019-02-14T09:40:08.023Z,13.50
2019-02-14T09:41:08.558Z,13.50
2019-02-14T09:42:08.658Z,13.50
2019-02-14T09:43:08.567Z,13.30
2019-02-14T09:44:08.972Z,14.50
2019-02-14T09:45:09.871Z,13.80
2019-02-14T09:46:09.703Z,14.40
2019-02-14T09:47:10.146Z,13.80
2019-02-14T09:48:10.575Z,14.50
2019-02-14T09:49:11.178Z,13.90
2019-02-14T09:50:11.208Z,14.20
2019-02-14T09:51:11.155Z,14.90
2019-02-14T09:52:11.468Z,14.30
2019-02-14T09:53:12.359Z,14.70
2019-02-14T09:54:12.223Z,14.70
2019-02-14T09:55:13.295Z,14.30
2019-02-14T09:56:12.635Z,14.70
2019-02-14T09:57:13.497Z,14.50
2019-02-14T09:58:13.370Z,14.40
2019-02-14T09:59:13.800Z,14.60
2019-02-14T10:00:14.871Z,14.60
2019-02-14T10:01:14.218Z,14.00
2019-02-14T10:02:14.649Z,13.30
2019-02-14T10:03:15.085Z,14.20
2019-02-14T10:04:15.592Z,14.30
2019-02-14T10:05:16.193Z,14.60
2019-02-14T10:07:15.883Z,14.70
2019-02-14T10:08:16.180Z,14.40
2019-02-14T10:09:16.495Z,15.20
2019-02-14T10:10:17.813Z,13.30
2019-02-14T10:11:17.687Z,13.90
2019-02-14T10:12:17.779Z,13.90
2019-02-14T10:13:17.992Z,14.50
2019-02-14T10:14:18.312Z,14.40
2019-02-14T10:15:18.179Z,14.00
2019-02-14T10:17:22.272Z,14.50
2019-02-14T10:18:18.598Z,14.10
2019-02-14T10:19:19.192Z,14.30
2019-02-14T10:20:19.021Z,14.00
2019-02-14T10:21:19.888Z,13.90
2019-02-14T10:22:19.997Z,13.30
2019-02-14T10:23:20.317Z,13.80
2019-02-14T10:24:21.243Z,13.20
2019-02-14T10:25:21.555Z,13.40
2019-02-14T10:26:21.796Z,13.40
2019-02-14T10:27:21.875Z,13.70
2019-02-14T10:28:21.978Z,13.40
2019-02-14T10:29:21.883Z,13.50
2019-02-14T10:30:22.415Z,14.10
2019-02-14T10:31:22.517Z,13.80
2019-02-14T10:32:22.618Z,13.30
2019-02-14T10:33:22.790Z,13.30
2019-02-14T10:34:22.920Z,12.00
2019-02-14T10:35:22.822Z,12.80
2019-02-14T10:36:23.291Z,12.70
2019-02-14T10:37:23.141Z,13.00
2019-02-14T10:38:23.553Z,12.70
2019-02-14T10:39:23.940Z,13.20
2019-02-14T10:40:24.288Z,12.10
2019-02-14T10:41:24.685Z,12.80
2019-02-14T10:42:25.184Z,13.20
2019-02-14T10:43:25.252Z,13.00
2019-02-14T10:44:26.001Z,13.50
2019-02-14T10:45:25.885Z,13.30
2019-02-14T10:46:25.891Z,12.50
2019-02-14T10:47:26.263Z,13.10
2019-02-14T10:48:26.577Z,11.90
2019-02-14T10:49:27.012Z,12.60
2019-02-14T10:50:27.422Z,13.20
2019-02-14T10:51:27.833Z,12.70
2019-02-14T10:52:28.250Z,12.50
2019-02-14T10:53:29.366Z,12.30
2019-02-14T10:54:28.768Z,11.90
2019-02-14T10:55:29.060Z,11.90
2019-02-14T10:56:29.407Z,13.00
2019-02-14T10:57:29.822Z,12.80
2019-02-14T10:58:30.232Z,11.70
2019-02-14T10:59:30.849Z,12.20
2019-02-14T11:00:31.626Z,12.20
2019-02-14T11:01:31.317Z,12.30
2019-02-14T11:02:31.423Z,12.50
2019-02-14T11:03:31.225Z,12.10
2019-02-14T11:04:31.602Z,13.00
2019-02-14T11:05:32.480Z,11.80
2019-02-14T11:06:32.479Z,11.80
2019-02-14T11:07:32.336Z,12.60
2019-02-14T11:08:33.101Z,12.00
2019-02-14T11:09:32.916Z,11.80
2019-02-14T11:10:33.297Z,11.90
2019-02-14T11:11:33.710Z,11.90
2019-02-14T11:12:34.115Z,11.80
2019-02-14T11:13:34.439Z,12.60
2019-02-14T11:14:35.293Z,11.50
2019-02-14T11:15:36.224Z,11.80
2019-02-14T11:16:36.530Z,12.50
2019-02-14T11:17:36.641Z,12.50
2019-02-14T11:18:44.069Z,12.20
2019-02-14T11:19:37.268Z,11.50
2019-02-14T11:20:37.487Z,12.30
2019-02-14T11:21:37.570Z,12.60
2019-02-14T11:22:37.597Z,10.90
2019-02-14T11:23:37.592Z,12.70
2019-02-14T11:24:37.824Z,12.50
2019-02-14T11:25:38.251Z,13.10
2019-02-14T11:26:38.218Z,11.90
2019-02-14T11:27:38.496Z,11.80
2019-02-14T11:28:38.950Z,12.90
2019-02-14T11:29:39.239Z,11.90
2019-02-14T11:30:39.797Z,12.70
2019-02-14T11:31:39.670Z,12.10
2019-02-14T11:32:40.085Z,11.70
2019-02-14T11:33:40.391Z,11.60
2019-02-14T11:34:40.948Z,12.30
2019-02-14T11:35:40.823Z,12.30
2019-02-14T11:36:41.231Z,11.80
2019-02-14T11:37:41.789Z,11.90
2019-02-14T11:38:41.653Z,12.30
2019-02-14T11:39:42.522Z,11.90
2019-02-14T11:40:42.394Z,11.90
2019-02-14T11:41:42.690Z,11.70
2019-02-14T11:42:43.276Z,11.30
2019-02-14T11:43:43.118Z,12.20
2019-02-14T11:44:44.089Z,12.50
2019-02-14T11:45:44.620Z,11.70
2019-02-14T11:46:51.302Z,12.20
2019-02-14T11:47:44.395Z,11.80
2019-02-14T11:48:44.784Z,11.90
2019-02-14T11:49:45.109Z,11.00
2019-02-14T11:50:45.528Z,11.10
2019-02-14T11:51:45.895Z,10.70
2019-02-14T11:52:46.492Z,11.00
2019-02-14T11:53:46.491Z,10.50
2019-02-14T11:54:46.915Z,10.80
2019-02-14T11:55:47.297Z,11.30
2019-02-14T11:56:47.604Z,10.50
2019-02-14T11:57:47.909Z,11.70
2019-02-14T11:58:48.302Z,10.80
2019-02-14T11:59:48.655Z,10.40
2019-02-14T12:00:48.965Z,10.90
2019-02-14T12:01:55.230Z,9.50
2019-02-14T12:02:55.621Z,10.30
2019-02-14T12:03:50.895Z,10.70
2019-02-14T12:04:51.078Z,10.80
2019-02-14T12:05:51.293Z,11.10
2019-02-14T12:06:51.706Z,10.70
2019-02-14T12:07:51.613Z,10.30
2019-02-14T12:08:59.797Z,10.40
2019-02-14T12:09:58.744Z,10.90
2019-02-14T12:10:52.039Z,11.30
2019-02-14T12:11:52.320Z,10.50
2019-02-14T12:12:52.357Z,12.30
2019-02-14T12:13:52.476Z,10.70
2019-02-14T12:14:52.572Z,11.20
2019-02-14T12:15:52.798Z,11.40
2019-02-14T12:16:52.902Z,11.20
2019-02-14T12:17:52.627Z,12.30
2019-02-14T12:18:52.983Z,11.30
2019-02-14T12:19:53.077Z,11.40
2019-02-14T12:20:53.239Z,12.10
2019-02-14T12:21:53.438Z,11.70
2019-02-14T12:22:53.306Z,11.40
2019-02-14T12:23:53.613Z,11.40
2019-02-14T12:24:54.041Z,12.00
2019-02-14T12:25:54.346Z,11.60
2019-02-14T12:27:55.381Z,12.30
2019-02-14T12:28:55.195Z,11.60
2019-02-14T12:29:55.607Z,11.30
2019-02-14T12:30:56.068Z,12.20
2019-02-14T12:31:57.057Z,11.70
2019-02-14T12:32:57.207Z,11.50
2019-02-14T12:33:57.517Z,11.60
2019-02-14T12:34:57.888Z,12.50
2019-02-14T12:35:57.695Z,12.40
2019-02-14T12:36:58.299Z,11.90
2019-02-14T12:37:58.473Z,11.80
2019-02-14T12:38:58.469Z,11.60
2019-02-14T12:39:58.373Z,12.50
2019-02-14T12:40:58.751Z,12.00
2019-02-14T12:41:59.624Z,11.30
2019-02-14T12:42:59.494Z,12.30
2019-02-14T12:43:59.898Z,12.40
2019-02-14T12:45:00.755Z,12.30
2019-02-14T12:46:00.360Z,12.20
2019-02-14T12:47:00.736Z,12.70
2019-02-14T12:48:01.504Z,12.70
2019-02-14T12:49:01.916Z,11.70
2019-02-14T12:50:02.843Z,12.00
2019-02-14T12:51:03.020Z,12.00
2019-02-14T12:52:02.943Z,12.30
2019-02-14T12:53:03.488Z,12.00
2019-02-14T12:54:03.518Z,12.40
2019-02-14T12:55:03.896Z,11.90
2019-02-14T12:56:04.427Z,11.80
2019-02-14T12:57:04.018Z,12.40
2019-02-14T12:58:04.746Z,12.70
2019-02-14T12:59:04.499Z,12.20
2019-02-14T13:00:04.444Z,13.20
2019-02-14T13:01:05.482Z,12.40
2019-02-14T13:02:05.277Z,12.90
2019-02-14T13:03:06.012Z,12.10
2019-02-14T13:04:06.211Z,12.10
2019-02-14T13:05:06.592Z,11.70
2019-02-14T13:06:09.751Z,11.30
2019-02-14T13:07:06.924Z,12.10
2019-02-14T13:08:07.365Z,11.50
2019-02-14T13:09:07.624Z,11.20